sensor_id;sensor_type;location;lat;lon;timestamp;pressure;altitude;pressure_sealevel;temperature;humidity
28267;BME280;15525;45.568;5.448;2023-02-02T00:00:47;99486.31;;;7.22;56.85
28267;BME280;15525;45.568;5.448;2023-02-02T00:03:13;99475.09;;;7.14;57.08
28267;BME280;15525;45.568;5.448;2023-02-02T00:05:44;99467.09;;;7.20;56.70
28267;BME280;15525;45.568;5.448;2023-02-02T00:08:09;99470.19;;;7.11;56.69
28267;BME280;15525;45.568;5.448;2023-02-02T00:10:35;99475.72;;;7.16;56.62
28267;BME280;15525;45.568;5.448;2023-02-02T00:13:00;99468.34;;;7.18;56.16
28267;BME280;15525;45.568;5.448;2023-02-02T00:15:26;99465.91;;;7.10;56.67
28267;BME280;15525;45.568;5.448;2023-02-02T00:17:51;99473.53;;;7.00;56.92
28267;BME280;15525;45.568;5.448;2023-02-02T00:20:16;99472.31;;;6.96;56.38
28267;BME280;15525;45.568;5.448;2023-02-02T00:22:42;99474.78;;;6.91;55.86
28267;BME280;15525;45.568;5.448;2023-02-02T00:25:08;99469.50;;;6.84;55.95
28267;BME280;15525;45.568;5.448;2023-02-02T00:27:33;99465.81;;;6.79;56.25
28267;BME280;15525;45.568;5.448;2023-02-02T00:29:59;99469.13;;;6.74;56.57
28267;BME280;15525;45.568;5.448;2023-02-02T00:32:24;99459.56;;;6.47;56.65
28267;BME280;15525;45.568;5.448;2023-02-02T00:34:50;99464.31;;;6.32;57.25
28267;BME280;15525;45.568;5.448;2023-02-02T00:37:15;99465.28;;;6.51;56.66
28267;BME280;15525;45.568;5.448;2023-02-02T00:39:41;99451.97;;;6.51;56.54
28267;BME280;15525;45.568;5.448;2023-02-02T00:42:09;99451.97;;;6.51;56.44
28267;BME280;15525;45.568;5.448;2023-02-02T00:44:35;99447.50;;;6.45;56.54
28267;BME280;15525;45.568;5.448;2023-02-02T00:47:19;99461.19;;;6.55;56.06
28267;BME280;15525;45.568;5.448;2023-02-02T00:49:44;99449.94;;;6.59;56.30
28267;BME280;15525;45.568;5.448;2023-02-02T00:52:10;99450.81;;;6.34;56.74
28267;BME280;15525;45.568;5.448;2023-02-02T00:54:36;99450.19;;;6.32;56.79
28267;BME280;15525;45.568;5.448;2023-02-02T00:57:01;99450.59;;;6.29;56.57
28267;BME280;15525;45.568;5.448;2023-02-02T00:59:27;99445.31;;;6.09;56.93
28267;BME280;15525;45.568;5.448;2023-02-02T01:01:52;99448.78;;;6.16;56.72
28267;BME280;15525;45.568;5.448;2023-02-02T01:04:18;99442.88;;;6.08;57.39
28267;BME280;15525;45.568;5.448;2023-02-02T01:06:43;99446.94;;;6.04;57.34
28267;BME280;15525;45.568;5.448;2023-02-02T01:09:09;99451.00;;;5.74;58.78
28267;BME280;15525;45.568;5.448;2023-02-02T01:11:34;99450.34;;;5.46;60.13
28267;BME280;15525;45.568;5.448;2023-02-02T01:13:59;99444.06;;;5.73;59.01
28267;BME280;15525;45.568;5.448;2023-02-02T01:16:25;99437.56;;;6.01;57.99
28267;BME280;15525;45.568;5.448;2023-02-02T01:18:51;99431.84;;;6.04;57.46
28267;BME280;15525;45.568;5.448;2023-02-02T01:21:16;99436.72;;;5.94;57.02
28267;BME280;15525;45.568;5.448;2023-02-02T01:23:42;99440.81;;;6.03;57.00
28267;BME280;15525;45.568;5.448;2023-02-02T01:26:09;99438.16;;;6.10;56.43
28267;BME280;15525;45.568;5.448;2023-02-02T01:28:36;99443.47;;;6.10;56.67
28267;BME280;15525;45.568;5.448;2023-02-02T01:31:09;99440.00;;;6.16;56.13
28267;BME280;15525;45.568;5.448;2023-02-02T01:33:35;99441.44;;;6.18;56.23
28267;BME280;15525;45.568;5.448;2023-02-02T01:36:05;99432.88;;;5.90;57.55
28267;BME280;15525;45.568;5.448;2023-02-02T01:38:30;99436.13;;;5.99;57.17
28267;BME280;15525;45.568;5.448;2023-02-02T01:40:56;99437.34;;;6.03;56.66
28267;BME280;15525;45.568;5.448;2023-02-02T01:45:50;99441.63;;;6.10;56.42
28267;BME280;15525;45.568;5.448;2023-02-02T01:48:18;99441.44;;;6.12;56.61
28267;BME280;15525;45.568;5.448;2023-02-02T01:50:45;99438.78;;;5.99;57.30
28267;BME280;15525;45.568;5.448;2023-02-02T01:53:12;99428.34;;;5.84;57.51
28267;BME280;15525;45.568;5.448;2023-02-02T01:55:38;99431.59;;;5.67;57.29
28267;BME280;15525;45.568;5.448;2023-02-02T01:58:10;99442.22;;;5.73;57.80
28267;BME280;15525;45.568;5.448;2023-02-02T02:00:38;99435.72;;;5.89;56.97
28267;BME280;15525;45.568;5.448;2023-02-02T02:03:09;99438.59;;;5.87;56.64
28267;BME280;15525;45.568;5.448;2023-02-02T02:06:01;99425.03;;;5.56;57.88
28267;BME280;15525;45.568;5.448;2023-02-02T02:08:28;99438.94;;;5.71;57.40
28267;BME280;15525;45.568;5.448;2023-02-02T02:10:55;99433.63;;;5.52;57.67
28267;BME280;15525;45.568;5.448;2023-02-02T02:13:23;99421.38;;;5.64;57.19
28267;BME280;15525;45.568;5.448;2023-02-02T02:16:20;99419.53;;;5.58;57.32
28267;BME280;15525;45.568;5.448;2023-02-02T02:30:55;99414.59;;;5.29;57.89
28267;BME280;15525;45.568;5.448;2023-02-02T02:39:15;99417.06;;;5.43;57.20
28267;BME280;15525;45.568;5.448;2023-02-02T02:41:41;99416.44;;;5.35;57.01
28267;BME280;15525;45.568;5.448;2023-02-02T02:44:11;99405.81;;;5.28;56.50
28267;BME280;15525;45.568;5.448;2023-02-02T02:46:38;99417.66;;;5.32;56.69
28267;BME280;15525;45.568;5.448;2023-02-02T02:49:07;99417.03;;;5.24;56.90
28267;BME280;15525;45.568;5.448;2023-02-02T02:54:29;99421.53;;;5.30;57.41
28267;BME280;15525;45.568;5.448;2023-02-02T02:59:45;99421.34;;;5.51;56.59
28267;BME280;15525;45.568;5.448;2023-02-02T03:02:24;99420.13;;;5.27;57.58
28267;BME280;15525;45.568;5.448;2023-02-02T03:05:50;99404.19;;;5.34;57.27
28267;BME280;15525;45.568;5.448;2023-02-02T03:10:39;99419.72;;;5.43;56.49
28267;BME280;15525;45.568;5.448;2023-02-02T03:13:08;99416.00;;;5.18;57.18
28267;BME280;15525;45.568;5.448;2023-02-02T03:15:34;99422.66;;;4.95;58.92
28267;BME280;15525;45.568;5.448;2023-02-02T03:17:59;99421.41;;;4.91;59.36
28267;BME280;15525;45.568;5.448;2023-02-02T03:20:25;99426.38;;;5.07;58.69
28267;BME280;15525;45.568;5.448;2023-02-02T03:22:50;99416.56;;;5.01;58.36
28267;BME280;15525;45.568;5.448;2023-02-02T03:25:16;99426.63;;;5.18;57.93
28267;BME280;15525;45.568;5.448;2023-02-02T03:27:41;99428.47;;;5.31;57.33
28267;BME280;15525;45.568;5.448;2023-02-02T03:30:09;99435.03;;;5.35;56.79
28267;BME280;15525;45.568;5.448;2023-02-02T03:32:36;99429.09;;;5.39;56.92
28267;BME280;15525;45.568;5.448;2023-02-02T03:35:02;99428.47;;;5.31;57.13
28267;BME280;15525;45.568;5.448;2023-02-02T03:37:28;99416.81;;;5.25;57.02
28267;BME280;15525;45.568;5.448;2023-02-02T03:39:53;99413.13;;;5.13;57.17
28267;BME280;15525;45.568;5.448;2023-02-02T03:42:18;99412.47;;;4.92;58.35
28267;BME280;15525;45.568;5.448;2023-02-02T03:44:44;99416.34;;;4.96;58.14
28267;BME280;15525;45.568;5.448;2023-02-02T03:47:09;99412.31;;;5.13;57.42
28267;BME280;15525;45.568;5.448;2023-02-02T03:49:35;99411.53;;;4.65;59.00
28267;BME280;15525;45.568;5.448;2023-02-02T03:52:00;99411.63;;;4.91;57.81
28267;BME280;15525;45.568;5.448;2023-02-02T03:54:29;99418.78;;;4.97;57.40
28267;BME280;15525;45.568;5.448;2023-02-02T03:56:55;99422.88;;;5.00;57.25
28267;BME280;15525;45.568;5.448;2023-02-02T03:59:21;99428.19;;;5.00;57.18
28267;BME280;15525;45.568;5.448;2023-02-02T04:01:46;99422.88;;;5.00;56.94
28267;BME280;15525;45.568;5.448;2023-02-02T04:04:11;99431.25;;;4.97;56.82
28267;BME280;15525;45.568;5.448;2023-02-02T04:06:37;99424.03;;;4.37;59.25
28267;BME280;15525;45.568;5.448;2023-02-02T04:09:02;99405.84;;;4.28;59.88
28267;BME280;15525;45.568;5.448;2023-02-02T04:11:28;99419.50;;;4.65;58.56
28267;BME280;15525;45.568;5.448;2023-02-02T04:13:53;99417.66;;;4.66;58.20
28267;BME280;15525;45.568;5.448;2023-02-02T04:16:19;99420.75;;;4.76;57.82
28267;BME280;15525;45.568;5.448;2023-02-02T04:18:44;99408.13;;;4.84;57.10
28267;BME280;15525;45.568;5.448;2023-02-02T04:21:10;99403.84;;;4.83;56.84
28267;BME280;15525;45.568;5.448;2023-02-02T04:23:36;99409.84;;;4.51;58.01
28267;BME280;15525;45.568;5.448;2023-02-02T04:26:01;99409.81;;;4.45;58.68
28267;BME280;15525;45.568;5.448;2023-02-02T04:28:27;99407.03;;;4.59;58.25
28267;BME280;15525;45.568;5.448;2023-02-02T04:30:54;99412.34;;;4.59;58.04
28267;BME280;15525;45.568;5.448;2023-02-02T04:33:21;99412.38;;;4.32;58.72
28267;BME280;15525;45.568;5.448;2023-02-02T04:35:48;99421.19;;;4.39;58.76
28267;BME280;15525;45.568;5.448;2023-02-02T04:38:13;99421.03;;;4.47;57.90
28267;BME280;15525;45.568;5.448;2023-02-02T04:40:40;99409.38;;;4.41;57.82
28267;BME280;15525;45.568;5.448;2023-02-02T04:43:05;99416.72;;;4.46;57.58
28267;BME280;15525;45.568;5.448;2023-02-02T04:45:31;99423.31;;;4.56;57.41
28267;BME280;15525;45.568;5.448;2023-02-02T04:47:56;99412.31;;;4.53;57.09
28267;BME280;15525;45.568;5.448;2023-02-02T04:50:22;99412.50;;;4.51;56.87
28267;BME280;15525;45.568;5.448;2023-02-02T04:52:47;99415.63;;;4.27;57.89
28267;BME280;15525;45.568;5.448;2023-02-02T04:55:13;99408.72;;;3.99;59.31
28267;BME280;15525;45.568;5.448;2023-02-02T04:57:38;99399.31;;;4.24;58.19
28267;BME280;15525;45.568;5.448;2023-02-02T05:00:04;99416.91;;;4.38;57.35
28267;BME280;15525;45.568;5.448;2023-02-02T05:02:30;99417.72;;;4.38;57.07
28267;BME280;15525;45.568;5.448;2023-02-02T05:04:55;99405.31;;;4.11;58.20
28267;BME280;15525;45.568;5.448;2023-02-02T05:07:20;99419.63;;;4.17;58.10
28267;BME280;15525;45.568;5.448;2023-02-02T05:09:46;99405.22;;;4.26;57.35
28267;BME280;15525;45.568;5.448;2023-02-02T05:12:11;99426.75;;;4.10;58.13
28267;BME280;15525;45.568;5.448;2023-02-02T05:14:36;99429.25;;;4.24;57.34
28267;BME280;15525;45.568;5.448;2023-02-02T05:17:02;99417.63;;;4.25;57.45
28267;BME280;15525;45.568;5.448;2023-02-02T05:19:27;99424.38;;;4.21;57.45
28267;BME280;15525;45.568;5.448;2023-02-02T05:21:53;99428.19;;;4.12;57.64
28267;BME280;15525;45.568;5.448;2023-02-02T05:24:19;99431.72;;;4.26;57.20
28267;BME280;15525;45.568;5.448;2023-02-02T05:26:44;99425.34;;;4.20;56.85
28267;BME280;15525;45.568;5.448;2023-02-02T05:29:10;99431.59;;;4.06;57.52
28267;BME280;15525;45.568;5.448;2023-02-02T05:31:35;99422.53;;;4.22;57.03
28267;BME280;15525;45.568;5.448;2023-02-02T05:34:01;99426.19;;;4.21;56.82
28267;BME280;15525;45.568;5.448;2023-02-02T05:36:27;99418.25;;;3.93;57.52
28267;BME280;15525;45.568;5.448;2023-02-02T05:38:52;99417.81;;;3.62;59.71
28267;BME280;15525;45.568;5.448;2023-02-02T05:41:18;99418.97;;;3.81;58.54
28267;BME280;15525;45.568;5.448;2023-02-02T05:43:43;99430.03;;;3.63;59.15
28267;BME280;15525;45.568;5.448;2023-02-02T05:46:08;99424.38;;;3.94;58.13
28267;BME280;15525;45.568;5.448;2023-02-02T05:48:34;99420.63;;;4.09;57.69
28267;BME280;15525;45.568;5.448;2023-02-02T05:51:13;99431.16;;;4.03;57.93
28267;BME280;15525;45.568;5.448;2023-02-02T05:53:39;99425.53;;;4.12;57.69
28267;BME280;15525;45.568;5.448;2023-02-02T05:56:05;99428.84;;;4.21;57.43
28267;BME280;15525;45.568;5.448;2023-02-02T05:58:30;99428.19;;;4.12;57.40
28267;BME280;15525;45.568;5.448;2023-02-02T06:00:56;99439.19;;;4.16;57.81
28267;BME280;15525;45.568;5.448;2023-02-02T06:03:21;99437.56;;;4.15;57.87
28267;BME280;15525;45.568;5.448;2023-02-02T06:05:47;99447.81;;;3.97;58.60
28267;BME280;15525;45.568;5.448;2023-02-02T06:08:12;99450.84;;;3.66;59.82
28267;BME280;15525;45.568;5.448;2023-02-02T06:10:39;99443.34;;;3.97;58.89
28267;BME280;15525;45.568;5.448;2023-02-02T06:13:05;99446.88;;;4.04;57.97
28267;BME280;15525;45.568;5.448;2023-02-02T06:15:30;99455.53;;;3.71;59.37
28267;BME280;15525;45.568;5.448;2023-02-02T06:17:57;99458.56;;;3.68;60.09
28267;BME280;15525;45.568;5.448;2023-02-02T06:20:23;99450.53;;;3.55;60.57
28267;BME280;15525;45.568;5.448;2023-02-02T06:22:48;99457.78;;;3.95;59.59
28267;BME280;15525;45.568;5.448;2023-02-02T06:25:14;99452.63;;;4.14;58.58
28267;BME280;15525;45.568;5.448;2023-02-02T06:27:39;99448.34;;;4.13;57.97
28267;BME280;15525;45.568;5.448;2023-02-02T06:30:05;99447.81;;;4.24;57.85
28267;BME280;15525;45.568;5.448;2023-02-02T06:32:30;99451.31;;;4.04;58.29
28267;BME280;15525;45.568;5.448;2023-02-02T06:34:56;99447.34;;;4.14;58.22
28267;BME280;15525;45.568;5.448;2023-02-02T06:37:21;99444.88;;;4.13;57.81
28267;BME280;15525;45.568;5.448;2023-02-02T06:39:47;99450.25;;;4.26;57.86
28267;BME280;15525;45.568;5.448;2023-02-02T06:42:12;99449.47;;;4.32;57.51
28267;BME280;15525;45.568;5.448;2023-02-02T06:44:38;99457.06;;;4.35;57.66
28267;BME280;15525;45.568;5.448;2023-02-02T06:47:03;99456.94;;;4.49;57.50
28267;BME280;15525;45.568;5.448;2023-02-02T06:49:29;99460.25;;;4.58;57.39
28267;BME280;15525;45.568;5.448;2023-02-02T06:51:54;99457.81;;;4.63;57.47
28267;BME280;15525;45.568;5.448;2023-02-02T06:54:20;99464.59;;;4.72;57.72
28267;BME280;15525;45.568;5.448;2023-02-02T06:56:45;99454.22;;;4.77;57.70
28267;BME280;15525;45.568;5.448;2023-02-02T06:59:10;99457.44;;;4.66;58.47
28267;BME280;15525;45.568;5.448;2023-02-02T07:01:36;99465.63;;;4.71;58.57
28267;BME280;15525;45.568;5.448;2023-02-02T07:04:01;99470.16;;;4.83;57.78
28267;BME280;15525;45.568;5.448;2023-02-02T07:06:27;99465.66;;;4.77;57.57
28267;BME280;15525;45.568;5.448;2023-02-02T07:08:54;99471.38;;;4.81;58.22
28267;BME280;15525;45.568;5.448;2023-02-02T07:11:20;99478.88;;;4.71;59.09
28267;BME280;15525;45.568;5.448;2023-02-02T07:13:47;99468.94;;;4.86;58.51
28267;BME280;15525;45.568;5.448;2023-02-02T07:16:14;99483.72;;;5.01;58.31
28267;BME280;15525;45.568;5.448;2023-02-02T07:18:40;99492.09;;;5.05;58.38
28267;BME280;15525;45.568;5.448;2023-02-02T07:21:07;99488.88;;;5.16;58.18
28267;BME280;15525;45.568;5.448;2023-02-02T07:23:33;99497.50;;;5.31;58.10
28267;BME280;15525;45.568;5.448;2023-02-02T07:26:03;99498.94;;;5.33;57.73
28267;BME280;15525;45.568;5.448;2023-02-02T07:28:30;99488.50;;;5.32;58.16
28267;BME280;15525;45.568;5.448;2023-02-02T07:30:55;99502.44;;;5.47;57.50
28267;BME280;15525;45.568;5.448;2023-02-02T07:33:21;99499.53;;;5.29;57.91
28267;BME280;15525;45.568;5.448;2023-02-02T07:35:46;99490.78;;;5.35;58.11
28267;BME280;15525;45.568;5.448;2023-02-02T07:38:11;99486.94;;;5.50;57.62
28267;BME280;15525;45.568;5.448;2023-02-02T07:40:37;99488.22;;;5.07;59.48
28267;BME280;15525;45.568;5.448;2023-02-02T07:43:02;99477.84;;;5.19;58.70
28267;BME280;15525;45.568;5.448;2023-02-02T07:45:29;99483.28;;;4.98;60.56
28267;BME280;15525;45.568;5.448;2023-02-02T07:47:58;99496.00;;;5.15;60.20
28267;BME280;15525;45.568;5.448;2023-02-02T07:50:25;99499.19;;;5.58;59.15
28267;BME280;15525;45.568;5.448;2023-02-02T07:52:51;99500.03;;;5.78;59.02
28267;BME280;15525;45.568;5.448;2023-02-02T07:55:17;99500.03;;;5.78;58.28
28267;BME280;15525;45.568;5.448;2023-02-02T07:57:42;99503.16;;;5.88;58.47
28267;BME280;15525;45.568;5.448;2023-02-02T08:00:08;99480.84;;;5.69;58.51
28267;BME280;15525;45.568;5.448;2023-02-02T08:02:34;99510.53;;;5.99;58.32
28267;BME280;15525;45.568;5.448;2023-02-02T08:04:59;99503.16;;;5.88;58.91
28267;BME280;15525;45.568;5.448;2023-02-02T08:07:25;99514.19;;;5.85;58.70
28267;BME280;15525;45.568;5.448;2023-02-02T08:09:51;99513.94;;;5.80;59.75
28267;BME280;15525;45.568;5.448;2023-02-02T08:12:17;99510.25;;;5.68;60.40
28267;BME280;15525;45.568;5.448;2023-02-02T08:14:43;99514.09;;;5.59;60.69
28267;BME280;15525;45.568;5.448;2023-02-02T08:17:08;99511.91;;;5.09;62.58
28267;BME280;15525;45.568;5.448;2023-02-02T08:19:34;99513.63;;;5.36;61.31
28267;BME280;15525;45.568;5.448;2023-02-02T08:21:59;99520.28;;;5.06;62.61
28267;BME280;15525;45.568;5.448;2023-02-02T08:24:25;99513.69;;;5.55;60.96
28267;BME280;15525;45.568;5.448;2023-02-02T08:26:50;99526.59;;;5.71;60.88
28267;BME280;15525;45.568;5.448;2023-02-02T08:29:16;99516.06;;;6.30;59.48
28267;BME280;15525;45.568;5.448;2023-02-02T08:31:43;99514.38;;;6.42;59.04
28267;BME280;15525;45.568;5.448;2023-02-02T08:34:10;99518.28;;;6.33;59.10
28267;BME280;15525;45.568;5.448;2023-02-02T08:36:36;99511.75;;;5.90;60.11
28267;BME280;15525;45.568;5.448;2023-02-02T08:39:06;99519.31;;;5.86;60.96
28267;BME280;15525;45.568;5.448;2023-02-02T08:41:34;99519.09;;;6.59;59.36
28267;BME280;15525;45.568;5.448;2023-02-02T08:44:04;99516.53;;;6.97;58.96
28267;BME280;15525;45.568;5.448;2023-02-02T08:46:29;99520.25;;;6.76;58.64
28267;BME280;15525;45.568;5.448;2023-02-02T08:48:55;99521.50;;;6.80;59.03
28267;BME280;15525;45.568;5.448;2023-02-02T08:51:20;99523.41;;;6.28;59.91
28267;BME280;15525;45.568;5.448;2023-02-02T08:53:46;99517.03;;;6.48;59.79
28267;BME280;15525;45.568;5.448;2023-02-02T08:56:14;99511.88;;;6.86;59.71
28267;BME280;15525;45.568;5.448;2023-02-02T08:58:47;99524.03;;;7.19;58.90
28267;BME280;15525;45.568;5.448;2023-02-02T09:01:24;99515.44;;;7.11;58.65
28267;BME280;15525;45.568;5.448;2023-02-02T09:03:54;99517.63;;;7.33;58.37
28267;BME280;15525;45.568;5.448;2023-02-02T09:06:20;99525.69;;;7.58;58.68
28267;BME280;15525;45.568;5.448;2023-02-02T09:08:45;99534.53;;;7.89;57.67
28267;BME280;15525;45.568;5.448;2023-02-02T09:11:14;99523.88;;;7.89;57.23
28267;BME280;15525;45.568;5.448;2023-02-02T09:13:41;99519.13;;;8.22;56.93
28267;BME280;15525;45.568;5.448;2023-02-02T09:16:11;99512.03;;;8.10;56.87
28267;BME280;15525;45.568;5.448;2023-02-02T09:18:38;99529.16;;;7.96;57.64
28267;BME280;15525;45.568;5.448;2023-02-02T09:21:06;99528.69;;;8.05;58.11
28267;BME280;15525;45.568;5.448;2023-02-02T09:23:34;99530.44;;;8.18;57.63
28267;BME280;15525;45.568;5.448;2023-02-02T09:26:13;99525.22;;;8.54;56.96
28267;BME280;15525;45.568;5.448;2023-02-02T09:28:40;99534.63;;;8.99;57.12
28267;BME280;15525;45.568;5.448;2023-02-02T09:31:06;99514.81;;;9.24;56.48
28267;BME280;15525;45.568;5.448;2023-02-02T09:33:32;99538.00;;;9.60;54.66
28267;BME280;15525;45.568;5.448;2023-02-02T09:36:08;99529.66;;;9.68;54.38
28267;BME280;15525;45.568;5.448;2023-02-02T09:38:35;99535.13;;;9.43;55.15
28267;BME280;15525;45.568;5.448;2023-02-02T09:41:15;99533.84;;;9.46;55.20
28267;BME280;15525;45.568;5.448;2023-02-02T09:43:51;99546.31;;;9.52;55.41
28267;BME280;15525;45.568;5.448;2023-02-02T09:46:37;99547.09;;;10.29;54.83
28267;BME280;15525;45.568;5.448;2023-02-02T09:49:11;99535.84;;;10.09;54.40
28267;BME280;15525;45.568;5.448;2023-02-02T09:51:43;99546.00;;;10.19;53.91
28267;BME280;15525;45.568;5.448;2023-02-02T09:54:20;99536.69;;;10.10;54.41
28267;BME280;15525;45.568;5.448;2023-02-02T09:56:48;99549.44;;;9.49;55.72
28267;BME280;15525;45.568;5.448;2023-02-02T09:59:33;99547.84;;;10.07;55.49
28267;BME280;15525;45.568;5.448;2023-02-02T10:02:18;99539.72;;;9.84;55.56
28267;BME280;15525;45.568;5.448;2023-02-02T10:04:59;99539.44;;;10.90;53.49
28267;BME280;15525;45.568;5.448;2023-02-02T10:07:33;99540.47;;;11.01;53.27
28267;BME280;15525;45.568;5.448;2023-02-02T10:10:12;99543.16;;;10.89;52.62
28267;BME280;15525;45.568;5.448;2023-02-02T10:13:02;99545.72;;;10.96;52.82
28267;BME280;15525;45.568;5.448;2023-02-02T10:15:55;99554.72;;;11.29;52.67
28267;BME280;15525;45.568;5.448;2023-02-02T10:18:38;99555.25;;;11.15;53.06
28267;BME280;15525;45.568;5.448;2023-02-02T10:21:10;99547.41;;;11.36;51.87
28267;BME280;15525;45.568;5.448;2023-02-02T10:23:41;99553.38;;;12.23;50.83
28267;BME280;15525;45.568;5.448;2023-02-02T10:26:21;99552.47;;;12.34;49.47
28267;BME280;15525;45.568;5.448;2023-02-02T10:29:04;99560.63;;;12.39;49.98
28267;BME280;15525;45.568;5.448;2023-02-02T10:36:49;99564.03;;;12.51;49.48
28267;BME280;15525;45.568;5.448;2023-02-02T10:41:58;99557.38;;;11.92;50.91
28267;BME280;15525;45.568;5.448;2023-02-02T10:44:35;99554.59;;;12.15;50.49
28267;BME280;15525;45.568;5.448;2023-02-02T10:47:07;99547.31;;;12.16;50.62
28267;BME280;15525;45.568;5.448;2023-02-02T10:49:34;99541.72;;;12.17;50.05
28267;BME280;15525;45.568;5.448;2023-02-02T10:52:15;99542.94;;;12.26;50.11
28267;BME280;15525;45.568;5.448;2023-02-02T10:57:37;99529.84;;;12.13;49.33
28267;BME280;15525;45.568;5.448;2023-02-02T11:00:20;99522.91;;;13.64;46.56
28267;BME280;15525;45.568;5.448;2023-02-02T11:02:47;99523.50;;;13.93;45.79
28267;BME280;15525;45.568;5.448;2023-02-02T11:05:20;99514.91;;;13.48;46.91
28267;BME280;15525;45.568;5.448;2023-02-02T11:08:20;99508.88;;;14.15;45.21
28267;BME280;15525;45.568;5.448;2023-02-02T11:10:51;99508.56;;;14.70;44.84
28267;BME280;15525;45.568;5.448;2023-02-02T11:13:43;99512.81;;;14.29;44.96
28267;BME280;15525;45.568;5.448;2023-02-02T11:18:39;99511.53;;;14.10;45.36
28267;BME280;15525;45.568;5.448;2023-02-02T11:21:20;99494.53;;;13.09;47.78
28267;BME280;15525;45.568;5.448;2023-02-02T11:23:51;99511.84;;;13.61;47.17
28267;BME280;15525;45.568;5.448;2023-02-02T11:26:17;99510.97;;;14.35;44.97
28267;BME280;15525;45.568;5.448;2023-02-02T11:28:47;99514.91;;;14.22;46.23
28267;BME280;15525;45.568;5.448;2023-02-02T11:31:29;99519.56;;;13.79;45.15
28267;BME280;15525;45.568;5.448;2023-02-02T11:39:27;99527.94;;;13.82;45.38
28267;BME280;15525;45.568;5.448;2023-02-02T11:42:09;99528.06;;;13.44;46.49
28267;BME280;15525;45.568;5.448;2023-02-02T11:44:37;99530.97;;;13.64;46.23
28267;BME280;15525;45.568;5.448;2023-02-02T11:47:03;99528.06;;;14.19;45.07
28267;BME280;15525;45.568;5.448;2023-02-02T11:49:32;99523.38;;;14.67;44.03
28267;BME280;15525;45.568;5.448;2023-02-02T11:52:04;99528.06;;;14.19;45.13
28267;BME280;15525;45.568;5.448;2023-02-02T11:54:34;99514.09;;;13.26;45.76
28267;BME280;15525;45.568;5.448;2023-02-02T11:57:07;99524.94;;;14.05;44.27
28267;BME280;15525;45.568;5.448;2023-02-02T11:59:42;99513.75;;;13.87;45.12
28267;BME280;15525;45.568;5.448;2023-02-02T12:04:37;99513.25;;;14.84;43.85
28267;BME280;15525;45.568;5.448;2023-02-02T12:07:29;99516.13;;;15.24;42.87
28267;BME280;15525;45.568;5.448;2023-02-02T12:09:58;99514.09;;;14.95;42.66
28267;BME280;15525;45.568;5.448;2023-02-02T12:31:01;99493.31;;;14.17;44.41
28267;BME280;15525;45.568;5.448;2023-02-02T12:33:52;99499.72;;;14.43;43.84
28267;BME280;15525;45.568;5.448;2023-02-02T12:36:32;99500.25;;;13.82;44.55
28267;BME280;15525;45.568;5.448;2023-02-02T12:41:54;99502.41;;;13.85;44.84
28267;BME280;15525;45.568;5.448;2023-02-02T12:57:48;99485.38;;;15.20;42.62
28267;BME280;15525;45.568;5.448;2023-02-02T13:00:32;99483.78;;;14.73;42.79
28267;BME280;15525;45.568;5.448;2023-02-02T13:08:26;99494.25;;;14.06;45.31
28267;BME280;15525;45.568;5.448;2023-02-02T13:10:59;99489.16;;;13.78;45.24
28267;BME280;15525;45.568;5.448;2023-02-02T13:13:31;99491.63;;;14.11;45.48
28267;BME280;15525;45.568;5.448;2023-02-02T13:16:04;99486.13;;;14.64;43.68
28267;BME280;15525;45.568;5.448;2023-02-02T13:18:35;99476.91;;;15.53;42.39
28267;BME280;15525;45.568;5.448;2023-02-02T13:21:05;99477.25;;;15.97;42.02
28267;BME280;15525;45.568;5.448;2023-02-02T13:23:35;99476.94;;;15.68;41.38
28267;BME280;15525;45.568;5.448;2023-02-02T13:26:28;99471.16;;;14.83;42.96
28267;BME280;15525;45.568;5.448;2023-02-02T13:29:06;99485.53;;;14.21;42.93
28267;BME280;15525;45.568;5.448;2023-02-02T13:39:47;99486.69;;;13.50;45.38
28267;BME280;15525;45.568;5.448;2023-02-02T13:42:32;99471.91;;;13.26;45.97
28267;BME280;15525;45.568;5.448;2023-02-02T13:45:13;99482.03;;;13.19;46.34
28267;BME280;15525;45.568;5.448;2023-02-02T13:47:49;99486.97;;;13.06;46.45
28267;BME280;15525;45.568;5.448;2023-02-02T13:50:18;99473.97;;;13.41;46.41
28267;BME280;15525;45.568;5.448;2023-02-02T13:52:59;99488.56;;;13.71;45.71
28267;BME280;15525;45.568;5.448;2023-02-02T13:55:42;99475.63;;;14.68;43.89
28267;BME280;15525;45.568;5.448;2023-02-02T13:58:49;99486.91;;;15.06;42.37
28267;BME280;15525;45.568;5.448;2023-02-02T14:01:11;99483.38;;;15.57;42.38
28267;BME280;15525;45.568;5.448;2023-02-02T14:03:43;99493.63;;;14.52;42.56
28267;BME280;15525;45.568;5.448;2023-02-02T14:06:17;99486.03;;;14.91;42.72
28267;BME280;15525;45.568;5.448;2023-02-02T14:08:53;99487.59;;;14.40;42.61
28267;BME280;15525;45.568;5.448;2023-02-02T14:11:24;99491.25;;;15.07;41.53
28267;BME280;15525;45.568;5.448;2023-02-02T14:13:55;99486.78;;;15.28;40.83
28267;BME280;15525;45.568;5.448;2023-02-02T14:16:44;99492.47;;;14.17;43.38
28267;BME280;15525;45.568;5.448;2023-02-02T14:26:57;99491.19;;;15.49;42.27
28267;BME280;15525;45.568;5.448;2023-02-02T14:34:44;99507.78;;;13.58;45.81
28267;BME280;15525;45.568;5.448;2023-02-02T14:39:59;99524.13;;;12.92;46.50
28267;BME280;15525;45.568;5.448;2023-02-02T14:45:33;99515.97;;;13.47;46.14
28267;BME280;15525;45.568;5.448;2023-02-02T14:53:32;99520.84;;;12.90;45.78
28267;BME280;15525;45.568;5.448;2023-02-02T14:56:05;99528.38;;;12.22;46.39
28267;BME280;15525;45.568;5.448;2023-02-02T14:58:54;99536.19;;;12.73;45.61
28267;BME280;15525;45.568;5.448;2023-02-02T15:01:26;99540.00;;;13.32;44.72
28267;BME280;15525;45.568;5.448;2023-02-02T15:17:33;99532.03;;;12.99;46.26
28267;BME280;15525;45.568;5.448;2023-02-02T15:23:04;99532.66;;;13.06;46.11
28267;BME280;15525;45.568;5.448;2023-02-02T15:25:46;99536.88;;;12.47;47.74
28267;BME280;15525;45.568;5.448;2023-02-02T15:31:01;99537.97;;;12.84;46.46
28267;BME280;15525;45.568;5.448;2023-02-02T15:33:32;99538.22;;;12.99;46.42
28267;BME280;15525;45.568;5.448;2023-02-02T15:36:03;99535.88;;;12.53;46.61
28267;BME280;15525;45.568;5.448;2023-02-02T15:38:35;99534.09;;;12.42;46.85
28267;BME280;15525;45.568;5.448;2023-02-02T15:41:23;99537.50;;;12.38;46.92